Time;durP1;ratioP1;P1;durP2;ratioP2;P2;SDS_P1;SDS_P2;PMS_P1;PMS_P2;Temp;Humidity;BMP_temperature;BMP_pressure;BME280_temperature;BME280_humidity;BME280_pressure;Samples;Min_cycle;Max_cycle;Signal;HPM_P1;HPM_P2
2021/12/30 00:00:00;;;;;;;;;;;6.50;83.20;;;;;;6070496;23;19925;-78
2021/12/30 00:02:29;;;;;;;;;;;6.40;83.20;;;;;;6070749;23;20306;-78
2021/12/30 00:04:58;;;;;;;;;;;6.40;83.70;;;;;;6070167;23;19920;-80
2021/12/30 00:07:25;;;;;;;;;;;6.40;84.00;;;;;;6071009;23;19928;-78
2021/12/30 00:09:52;;;;;;;;;;;6.30;83.80;;;;;;6069936;23;20285;-78
2021/12/30 00:12:18;;;;;;;;;;;6.30;84.70;;;;;;6047236;23;20386;-78
2021/12/30 00:14:45;;;;;;;;;;;6.30;86.50;;;;;;6094888;23;19924;-79
2021/12/30 00:17:13;;;;;;;;;;;6.30;86.30;;;;;;6070550;23;19968;-78
2021/12/30 00:19:40;;;;;;;;;;;6.40;86.70;;;;;;6069794;23;19968;-78
2021/12/30 00:22:07;;;;;;;;;;;6.40;86.50;;;;;;6070528;23;19917;-78
2021/12/30 00:24:34;;;;;;;;;;;6.40;86.40;;;;;;6094602;23;19921;-81
2021/12/30 00:27:04;;;;;;;;;;;6.40;86.50;;;;;;6070961;23;19965;-78
2021/12/30 00:29:31;;;;;;;;;;;6.40;86.60;;;;;;6070347;23;19917;-78
2021/12/30 00:31:58;;;;;;;;;;;6.40;86.70;;;;;;6069367;23;19925;-78
2021/12/30 00:34:25;;;;;;;;;;;6.30;87.30;;;;;;6070506;23;20378;-78
2021/12/30 00:36:52;;;;;;;;;;;6.30;88.40;;;;;;6069670;23;19969;-79
2021/12/30 00:39:19;;;;;;;;;;;6.40;88.50;;;;;;6070263;23;19917;-78
2021/12/30 00:41:46;;;;;;;;;;;6.50;88.80;;;;;;6069444;23;19917;-79
2021/12/30 00:44:13;;;;;;;;;;;6.40;88.40;;;;;;6095233;23;20031;-78
2021/12/30 00:46:40;;;;;;;;;;;6.40;88.60;;;;;;6081467;23;20137;-78
2021/12/30 00:49:07;;;;;;;;;;;6.40;89.20;;;;;;6126811;23;20361;-78
2021/12/30 00:51:33;;;;;;;;;;;6.30;89.30;;;;;;6101058;23;20338;-78
2021/12/30 00:54:00;;;;;;;;;;;6.30;89.30;;;;;;6100789;23;19928;-78
2021/12/30 00:56:27;;;;;;;;;;;6.20;89.60;;;;;;6101024;23;19917;-78
2021/12/30 00:58:54;;;;;;;;;;;6.10;90.00;;;;;;6098782;23;19921;-80
2021/12/30 01:01:21;;;;;;;;;;;6.10;89.90;;;;;;6126504;23;19964;-81
2021/12/30 01:03:48;;;;;;;;;;;6.00;90.00;;;;;;6100182;23;19941;-78
2021/12/30 01:06:15;;;;;;;;;;;5.90;90.30;;;;;;6100053;23;19921;-78
2021/12/30 01:08:42;;;;;;;;;;;5.90;90.30;;;;;;6099189;23;20330;-78
2021/12/30 01:11:09;;;;;;;;;;;5.80;90.20;;;;;;6100147;23;20447;-78
2021/12/30 01:13:42;;;;;;;;;;;5.70;90.30;;;;;;6101126;23;20361;-78
2021/12/30 01:16:18;;;;;;;;;;;5.70;90.30;;;;;;6100617;23;20393;-78
2021/12/30 01:21:23;;;;;;;;;;;5.40;90.60;;;;;;6126269;23;19988;-77
2021/12/30 01:23:51;;;;;;;;;;;5.40;90.60;;;;;;6100100;23;19921;-78
2021/12/30 01:26:18;;;;;;;;;;;5.40;90.70;;;;;;6100964;23;19921;-78
2021/12/30 01:28:45;;;;;;;;;;;5.30;90.80;;;;;;6101361;23;19927;-78
2021/12/30 01:31:12;;;;;;;;;;;5.30;91.00;;;;;;6100875;23;19992;-78
2021/12/30 01:33:39;;;;;;;;;;;5.20;91.30;;;;;;6100666;23;20295;-80
2021/12/30 01:36:06;;;;;;;;;;;5.20;91.70;;;;;;6100228;23;19917;-81
2021/12/30 01:38:34;;;;;;;;;;;5.20;91.90;;;;;;6100741;23;19940;-78
2021/12/30 01:41:01;;;;;;;;;;;5.10;92.00;;;;;;6100096;23;19971;-80
2021/12/30 01:43:29;;;;;;;;;;;5.10;92.10;;;;;;6100999;23;20394;-79
2021/12/30 01:45:55;;;;;;;;;;;5.10;92.10;;;;;;6098003;23;20334;-78
2021/12/30 01:48:23;;;;;;;;;;;5.10;92.10;;;;;;6072174;23;19917;-77
2021/12/30 01:50:50;;;;;;;;;;;5.00;91.90;;;;;;6096186;23;19924;-79
2021/12/30 01:53:17;;;;;;;;;;;5.00;92.00;;;;;;6072244;23;20339;-80
2021/12/30 01:55:44;;;;;;;;;;;5.00;92.00;;;;;;6071437;23;19924;-78
2021/12/30 01:58:12;;;;;;;;;;;4.90;91.90;;;;;;6070973;23;20194;-78
2021/12/30 02:00:40;;;;;;;;;;;4.80;92.10;;;;;;6071695;23;19921;-78
2021/12/30 02:03:09;;;;;;;;;;;4.80;92.20;;;;;;6047628;23;19917;-78
2021/12/30 02:05:38;;;;;;;;;;;4.80;92.30;;;;;;6072143;23;20381;-78
2021/12/30 02:08:12;;;;;;;;;;;4.80;92.50;;;;;;6070581;23;19931;-80
2021/12/30 02:10:40;;;;;;;;;;;4.70;92.60;;;;;;6071693;23;19918;-78
2021/12/30 02:13:10;;;;;;;;;;;4.60;92.90;;;;;;6070687;23;19917;-78
2021/12/30 02:15:38;;;;;;;;;;;4.60;93.10;;;;;;6071413;23;20298;-81
2021/12/30 02:18:05;;;;;;;;;;;4.60;93.20;;;;;;6069666;23;19981;-78
2021/12/30 02:20:41;;;;;;;;;;;4.60;93.20;;;;;;6071935;23;19917;-79
2021/12/30 02:23:08;;;;;;;;;;;4.70;93.30;;;;;;6071086;23;19918;-78
2021/12/30 02:25:35;;;;;;;;;;;4.70;93.30;;;;;;6071482;23;19920;-81
2021/12/30 02:28:07;;;;;;;;;;;4.70;93.30;;;;;;6071086;23;19972;-80
2021/12/30 02:30:34;;;;;;;;;;;4.80;93.30;;;;;;6096861;23;19988;-78
2021/12/30 02:33:02;;;;;;;;;;;4.80;93.40;;;;;;6070258;23;19921;-78
2021/12/30 02:35:29;;;;;;;;;;;4.70;93.40;;;;;;6071912;23;20334;-78
2021/12/30 02:37:56;;;;;;;;;;;4.80;93.50;;;;;;6095903;23;19921;-78
2021/12/30 02:40:24;;;;;;;;;;;4.80;93.50;;;;;;6071239;23;19917;-79
2021/12/30 02:42:51;;;;;;;;;;;4.80;93.50;;;;;;6070972;23;19917;-81
2021/12/30 02:45:18;;;;;;;;;;;4.80;93.50;;;;;;6071961;23;19945;-79
2021/12/30 02:47:45;;;;;;;;;;;4.80;93.40;;;;;;6094471;23;19950;-79
2021/12/30 02:50:12;;;;;;;;;;;4.80;93.40;;;;;;6125161;23;19917;-81
2021/12/30 02:52:39;;;;;;;;;;;4.80;93.40;;;;;;6125896;23;19917;-78
2021/12/30 02:55:06;;;;;;;;;;;4.80;93.30;;;;;;6099227;23;19927;-78
2021/12/30 02:57:33;;;;;;;;;;;4.80;93.40;;;;;;6100389;23;19921;-81
2021/12/30 03:00:00;;;;;;;;;;;4.80;93.40;;;;;;6099508;23;20432;-78
2021/12/30 03:02:27;;;;;;;;;;;4.80;93.40;;;;;;6099976;23;19921;-81
2021/12/30 03:04:53;;;;;;;;;;;4.80;93.40;;;;;;6099275;23;19917;-78
2021/12/30 03:07:20;;;;;;;;;;;4.70;93.40;;;;;;6125544;23;20342;-78
2021/12/30 03:09:47;;;;;;;;;;;4.60;93.40;;;;;;6075703;23;19987;-78
2021/12/30 03:12:14;;;;;;;;;;;4.50;93.60;;;;;;6099021;23;20330;-78
2021/12/30 03:14:46;;;;;;;;;;;4.50;93.60;;;;;;6101220;23;20358;-78
2021/12/30 03:17:13;;;;;;;;;;;4.40;93.70;;;;;;6099612;23;20381;-78
2021/12/30 03:19:40;;;;;;;;;;;4.40;94.00;;;;;;6099842;23;20334;-78
2021/12/30 03:22:07;;;;;;;;;;;4.40;94.10;;;;;;6099232;23;19983;-78
2021/12/30 03:24:35;;;;;;;;;;;4.40;94.10;;;;;;6124992;23;20298;-79
2021/12/30 03:27:03;;;;;;;;;;;4.50;94.20;;;;;;6099218;23;20301;-77
2021/12/30 03:29:30;;;;;;;;;;;4.50;94.20;;;;;;6100376;23;19921;-78
2021/12/30 03:31:57;;;;;;;;;;;4.40;94.30;;;;;;6098680;23;19920;-78
2021/12/30 03:34:24;;;;;;;;;;;4.50;94.40;;;;;;6125276;23;20353;-78
2021/12/30 03:36:51;;;;;;;;;;;4.50;94.40;;;;;;6099605;23;19924;-78
2021/12/30 03:39:18;;;;;;;;;;;4.40;94.40;;;;;;6099223;23;19984;-78
2021/12/30 03:41:45;;;;;;;;;;;4.40;94.50;;;;;;6100181;23;19948;-79
2021/12/30 03:44:12;;;;;;;;;;;4.50;94.60;;;;;;6099096;23;19921;-81
2021/12/30 03:46:39;;;;;;;;;;;4.50;94.60;;;;;;6114439;23;19949;-78
2021/12/30 03:49:06;;;;;;;;;;;4.50;94.50;;;;;;6070014;23;19960;-78
2021/12/30 03:51:38;;;;;;;;;;;4.40;94.60;;;;;;6071674;23;19924;-78
2021/12/30 03:54:06;;;;;;;;;;;4.50;94.60;;;;;;6070443;23;19975;-78
2021/12/30 03:56:34;;;;;;;;;;;4.50;94.50;;;;;;6071182;23;20228;-79
2021/12/30 03:59:01;;;;;;;;;;;4.50;94.50;;;;;;6069773;23;19917;-78
2021/12/30 04:01:28;;;;;;;;;;;4.40;94.60;;;;;;6070980;23;19917;-78
2021/12/30 04:03:57;;;;;;;;;;;4.40;94.60;;;;;;6070642;23;20406;-78
2021/12/30 04:06:27;;;;;;;;;;;4.40;94.50;;;;;;6070073;23;20336;-80
2021/12/30 04:08:55;;;;;;;;;;;4.40;94.50;;;;;;6096095;23;19939;-79
2021/12/30 04:11:23;;;;;;;;;;;4.40;94.50;;;;;;6095006;23;19917;-80
2021/12/30 04:13:50;;;;;;;;;;;4.50;94.50;;;;;;6070765;23;19921;-78
2021/12/30 04:16:20;;;;;;;;;;;4.30;94.40;;;;;;6047123;23;20228;-81
2021/12/30 04:18:48;;;;;;;;;;;4.30;94.50;;;;;;6070638;23;19917;-78
2021/12/30 04:21:16;;;;;;;;;;;4.20;94.60;;;;;;6071969;23;19917;-78
2021/12/30 04:23:44;;;;;;;;;;;4.30;94.60;;;;;;6072765;23;19917;-78
2021/12/30 04:26:11;;;;;;;;;;;4.30;94.60;;;;;;6071889;23;19964;-78
2021/12/30 04:28:38;;;;;;;;;;;4.40;94.60;;;;;;6072709;23;19917;-77
2021/12/30 04:31:05;;;;;;;;;;;4.40;94.60;;;;;;6071822;23;19921;-81
2021/12/30 04:33:32;;;;;;;;;;;4.40;94.60;;;;;;6072929;23;19921;-78
2021/12/30 04:35:59;;;;;;;;;;;4.40;94.60;;;;;;6072546;23;19920;-78
2021/12/30 04:38:28;;;;;;;;;;;4.40;94.50;;;;;;6072408;23;19921;-78
2021/12/30 04:40:55;;;;;;;;;;;4.40;94.40;;;;;;6072333;23;19953;-79
2021/12/30 04:43:22;;;;;;;;;;;4.30;94.30;;;;;;6071913;23;19925;-80
2021/12/30 04:45:49;;;;;;;;;;;4.30;94.30;;;;;;6072493;23;19917;-78
2021/12/30 04:48:16;;;;;;;;;;;4.30;94.40;;;;;;6096804;23;19943;-80
2021/12/30 04:50:46;;;;;;;;;;;4.30;94.40;;;;;;6072595;23;19921;-78
2021/12/30 04:53:14;;;;;;;;;;;4.30;94.40;;;;;;6071940;23;19968;-78
2021/12/30 04:55:41;;;;;;;;;;;4.30;94.40;;;;;;6072567;23;19917;-78
2021/12/30 04:58:07;;;;;;;;;;;4.30;94.40;;;;;;6096657;23;20386;-78
2021/12/30 05:00:35;;;;;;;;;;;4.30;94.30;;;;;;6072707;23;19928;-81
2021/12/30 05:05:29;;;;;;;;;;;4.30;94.40;;;;;;6096982;23;19921;-79
2021/12/30 05:07:56;;;;;;;;;;;4.30;94.40;;;;;;6071907;23;20056;-81
2021/12/30 05:10:23;;;;;;;;;;;4.30;94.40;;;;;;6096791;23;20351;-78
2021/12/30 05:12:50;;;;;;;;;;;4.30;94.40;;;;;;6072634;23;19920;-81
2021/12/30 05:15:17;;;;;;;;;;;4.30;94.30;;;;;;6071608;23;20346;-78
2021/12/30 05:17:44;;;;;;;;;;;4.30;94.30;;;;;;6072507;23;19968;-78
2021/12/30 05:20:12;;;;;;;;;;;4.30;94.20;;;;;;6071153;23;20339;-79
2021/12/30 05:22:39;;;;;;;;;;;4.30;94.20;;;;;;6072302;23;19918;-81
2021/12/30 05:25:06;;;;;;;;;;;4.30;94.20;;;;;;6071040;23;19921;-79
2021/12/30 05:27:33;;;;;;;;;;;4.30;94.20;;;;;;6072169;23;19920;-78
2021/12/30 05:30:00;;;;;;;;;;;4.30;94.20;;;;;;6072075;23;19981;-78
2021/12/30 05:32:27;;;;;;;;;;;4.30;94.30;;;;;;6070919;23;20346;-81
2021/12/30 05:34:54;;;;;;;;;;;4.20;94.20;;;;;;6071862;23;20339;-78
2021/12/30 05:37:21;;;;;;;;;;;4.20;94.30;;;;;;6071519;23;19917;-78
2021/12/30 05:39:48;;;;;;;;;;;4.20;94.40;;;;;;6071618;23;19972;-78
2021/12/30 05:42:14;;;;;;;;;;;4.10;94.50;;;;;;6096549;23;19972;-78
2021/12/30 05:44:41;;;;;;;;;;;4.10;95.00;;;;;;6071991;23;19917;-78
2021/12/30 05:47:08;;;;;;;;;;;4.10;94.60;;;;;;6087215;23;20373;-78
2021/12/30 05:49:35;;;;;;;;;;;4.20;94.70;;;;;;6100836;23;20338;-81
2021/12/30 05:52:02;;;;;;;;;;;4.20;94.60;;;;;;6100537;23;19917;-78
2021/12/30 05:54:28;;;;;;;;;;;4.10;94.50;;;;;;6125471;23;19917;-78
2021/12/30 05:56:55;;;;;;;;;;;4.10;94.50;;;;;;6100672;23;19927;-78
2021/12/30 05:59:22;;;;;;;;;;;4.00;94.60;;;;;;6100037;23;19916;-79
2021/12/30 06:01:49;;;;;;;;;;;4.00;94.60;;;;;;6100481;23;19921;-79
2021/12/30 06:04:17;;;;;;;;;;;4.10;94.60;;;;;;6099906;23;19925;-79
2021/12/30 06:06:43;;;;;;;;;;;4.10;94.60;;;;;;6101122;23;19968;-78
2021/12/30 06:09:11;;;;;;;;;;;4.00;94.60;;;;;;6099191;23;19921;-79
2021/12/30 06:11:37;;;;;;;;;;;4.00;94.60;;;;;;6125970;23;19948;-78
2021/12/30 06:14:04;;;;;;;;;;;4.00;94.70;;;;;;6100384;23;20321;-77
2021/12/30 06:16:33;;;;;;;;;;;4.00;94.70;;;;;;6099136;23;19917;-77
2021/12/30 06:19:02;;;;;;;;;;;4.10;94.80;;;;;;6101017;23;19999;-78
2021/12/30 06:21:29;;;;;;;;;;;4.10;94.80;;;;;;6125084;23;19972;-78
2021/12/30 06:23:56;;;;;;;;;;;4.10;95.10;;;;;;6100548;23;19917;-79
2021/12/30 06:26:23;;;;;;;;;;;3.90;94.60;;;;;;6098651;23;19920;-78
2021/12/30 06:28:49;;;;;;;;;;;3.90;94.70;;;;;;6125533;23;19921;-77
2021/12/30 06:31:16;;;;;;;;;;;3.90;94.90;;;;;;6099785;23;19917;-79
2021/12/30 06:33:43;;;;;;;;;;;3.90;95.00;;;;;;6100300;23;19920;-78
2021/12/30 06:36:10;;;;;;;;;;;4.00;95.00;;;;;;6125182;23;19923;-79
2021/12/30 06:38:37;;;;;;;;;;;4.00;95.40;;;;;;6099906;23;19917;-76
2021/12/30 06:41:04;;;;;;;;;;;4.00;95.00;;;;;;6125325;23;19917;-79
2021/12/30 06:43:31;;;;;;;;;;;4.00;95.00;;;;;;6098896;23;20372;-79
2021/12/30 06:45:58;;;;;;;;;;;4.00;94.80;;;;;;6097663;23;19968;-78
2021/12/30 06:48:25;;;;;;;;;;;4.00;94.70;;;;;;6070511;23;19921;-77
2021/12/30 06:50:52;;;;;;;;;;;4.00;94.70;;;;;;6071339;23;19924;-79
2021/12/30 06:53:23;;;;;;;;;;;4.00;94.70;;;;;;6094877;23;20267;-78
2021/12/30 06:55:50;;;;;;;;;;;4.00;94.70;;;;;;6070461;23;19921;-79
2021/12/30 06:58:17;;;;;;;;;;;4.00;94.70;;;;;;6068285;23;20409;-79
2021/12/30 07:00:45;;;;;;;;;;;3.90;94.60;;;;;;6095312;23;19921;-77
2021/12/30 07:03:13;;;;;;;;;;;3.80;94.60;;;;;;6095072;23;19994;-77
2021/12/30 07:05:40;;;;;;;;;;;3.80;94.70;;;;;;6070949;23;19925;-79
2021/12/30 07:08:06;;;;;;;;;;;3.90;94.70;;;;;;6095668;23;19921;-77
2021/12/30 07:10:33;;;;;;;;;;;3.90;94.80;;;;;;6070296;23;20341;-79
2021/12/30 07:13:00;;;;;;;;;;;4.00;94.80;;;;;;6071016;23;20330;-77
2021/12/30 07:15:28;;;;;;;;;;;4.00;94.70;;;;;;6095324;23;19930;-78
2021/12/30 07:17:55;;;;;;;;;;;4.00;94.60;;;;;;6070633;23;20398;-79
2021/12/30 07:20:22;;;;;;;;;;;3.90;94.60;;;;;;6069972;23;19917;-77
2021/12/30 07:22:49;;;;;;;;;;;3.90;94.40;;;;;;6070741;23;19917;-77
2021/12/30 07:25:16;;;;;;;;;;;3.80;94.40;;;;;;6069507;23;19974;-78
2021/12/30 07:27:45;;;;;;;;;;;3.80;94.50;;;;;;6070655;23;19940;-79
2021/12/30 07:30:12;;;;;;;;;;;3.80;94.70;;;;;;6070599;23;19968;-77
2021/12/30 07:32:39;;;;;;;;;;;3.70;94.80;;;;;;6069975;23;19917;-79
2021/12/30 07:35:06;;;;;;;;;;;3.70;94.80;;;;;;6068316;23;20299;-79
2021/12/30 07:37:33;;;;;;;;;;;3.60;94.80;;;;;;6094728;23;19917;-76
2021/12/30 07:39:59;;;;;;;;;;;3.60;94.90;;;;;;6071788;23;19921;-79
2021/12/30 07:42:26;;;;;;;;;;;3.60;94.90;;;;;;6069994;23;19921;-78
2021/12/30 07:44:53;;;;;;;;;;;3.60;94.90;;;;;;6018660;23;19921;-79
2021/12/30 07:47:20;;;;;;;;;;;3.70;94.90;;;;;;6055379;23;19999;-80
2021/12/30 07:49:47;;;;;;;;;;;3.70;95.00;;;;;;6099397;23;20335;-78
2021/12/30 07:52:14;;;;;;;;;;;3.70;94.80;;;;;;6096672;23;19979;-79
2021/12/30 07:54:43;;;;;;;;;;;3.60;94.90;;;;;;6124118;23;19920;-78
2021/12/30 07:57:23;;;;;;;;;;;3.70;94.90;;;;;;6099333;23;20330;-80
2021/12/30 07:59:50;;;;;;;;;;;3.70;94.90;;;;;;6098870;23;19924;-78
2021/12/30 08:02:17;;;;;;;;;;;3.70;94.90;;;;;;6099928;23;19917;-78
2021/12/30 08:04:44;;;;;;;;;;;3.70;94.90;;;;;;6124579;23;19948;-78
2021/12/30 08:07:11;;;;;;;;;;;3.70;95.00;;;;;;6099897;23;19917;-78
2021/12/30 08:09:38;;;;;;;;;;;3.70;94.90;;;;;;6123621;23;20404;-78
2021/12/30 08:12:05;;;;;;;;;;;3.80;95.40;;;;;;6099791;23;20330;-78
2021/12/30 08:14:32;;;;;;;;;;;3.80;94.90;;;;;;6099159;23;20393;-78
2021/12/30 08:17:00;;;;;;;;;;;3.90;94.90;;;;;;6099120;23;20357;-78
2021/12/30 08:19:32;;;;;;;;;;;3.80;94.80;;;;;;6099675;23;19917;-78
2021/12/30 08:21:59;;;;;;;;;;;3.80;94.80;;;;;;6124966;23;19916;-79
2021/12/30 08:24:27;;;;;;;;;;;3.80;94.80;;;;;;6098728;23;19921;-78
2021/12/30 08:27:12;;;;;;;;;;;3.80;94.80;;;;;;6101927;23;19917;-79
2021/12/30 08:29:39;;;;;;;;;;;3.80;94.70;;;;;;6098445;23;19917;-78
2021/12/30 08:32:08;;;;;;;;;;;3.80;94.80;;;;;;6123123;23;19929;-76
2021/12/30 08:34:35;;;;;;;;;;;3.80;94.80;;;;;;6099034;23;19921;-79
2021/12/30 08:37:02;;;;;;;;;;;3.60;94.70;;;;;;6123284;23;19964;-77
2021/12/30 08:39:29;;;;;;;;;;;3.50;94.70;;;;;;6098941;23;19967;-76
2021/12/30 08:41:58;;;;;;;;;;;3.50;94.90;;;;;;6098783;23;19921;-79
2021/12/30 08:44:26;;;;;;;;;;;3.50;94.90;;;;;;6124814;23;19924;-78
2021/12/30 08:46:54;;;;;;;;;;;3.60;95.00;;;;;;6098172;23;19924;-77
2021/12/30 08:49:21;;;;;;;;;;;3.60;95.40;;;;;;6098151;23;20334;-77
2021/12/30 08:51:49;;;;;;;;;;;3.60;95.00;;;;;;6123874;23;19944;-79
2021/12/30 08:54:16;;;;;;;;;;;3.70;94.90;;;;;;6124555;23;19924;-76
2021/12/30 08:56:42;;;;;;;;;;;3.70;94.80;;;;;;6098332;23;19964;-76
2021/12/30 08:59:09;;;;;;;;;;;3.80;94.80;;;;;;6097941;23;19920;-77
2021/12/30 09:01:36;;;;;;;;;;;3.70;94.60;;;;;;6099390;23;19917;-76
2021/12/30 09:04:04;;;;;;;;;;;3.60;94.70;;;;;;6122970;23;20004;-77
2021/12/30 09:06:30;;;;;;;;;;;3.70;94.80;;;;;;6099411;23;19916;-78
2021/12/30 09:08:57;;;;;;;;;;;3.70;94.90;;;;;;6125526;23;20330;-77
2021/12/30 09:11:25;;;;;;;;;;;3.70;94.70;;;;;;6100497;23;19947;-76
2021/12/30 09:13:52;;;;;;;;;;;3.70;94.80;;;;;;6100429;23;19964;-78
2021/12/30 09:16:19;;;;;;;;;;;3.70;94.80;;;;;;6126312;23;19916;-78
2021/12/30 09:18:46;;;;;;;;;;;3.70;94.80;;;;;;6100833;23;19916;-76
2021/12/30 09:21:13;;;;;;;;;;;3.70;94.90;;;;;;6099941;23;19917;-77
2021/12/30 09:23:40;;;;;;;;;;;3.70;94.90;;;;;;6101064;23;19963;-77
2021/12/30 09:26:07;;;;;;;;;;;3.70;94.90;;;;;;6100135;23;20301;-78
2021/12/30 09:28:34;;;;;;;;;;;3.70;94.90;;;;;;6126481;23;19917;-76
2021/12/30 09:31:01;;;;;;;;;;;3.70;95.00;;;;;;6099834;23;19921;-77
2021/12/30 09:33:28;;;;;;;;;;;3.80;95.10;;;;;;6125353;23;20317;-76
2021/12/30 09:35:54;;;;;;;;;;;3.90;95.10;;;;;;6099486;23;19980;-77
2021/12/30 09:38:21;;;;;;;;;;;3.90;95.00;;;;;;6126307;23;19924;-78
2021/12/30 09:40:48;;;;;;;;;;;4.00;95.00;;;;;;6126082;23;20341;-78
2021/12/30 09:43:16;;;;;;;;;;;4.00;94.90;;;;;;6125496;23;20021;-78
2021/12/30 09:45:43;;;;;;;;;;;4.00;94.80;;;;;;6100733;23;20390;-77
2021/12/30 09:48:11;;;;;;;;;;;4.10;94.90;;;;;;6100047;23;19946;-79
2021/12/30 09:50:42;;;;;;;;;;;4.10;94.80;;;;;;6125956;23;20253;-79
2021/12/30 09:53:09;;;;;;;;;;;4.20;94.80;;;;;;6125190;23;19921;-77
2021/12/30 09:55:37;;;;;;;;;;;4.20;94.70;;;;;;6126201;23;19924;-76
2021/12/30 09:58:05;;;;;;;;;;;4.30;94.60;;;;;;6099401;23;19924;-77
2021/12/30 10:00:32;;;;;;;;;;;4.30;94.60;;;;;;6100050;23;19921;-76
2021/12/30 10:02:59;;;;;;;;;;;4.30;94.50;;;;;;6125179;23;20338;-78
2021/12/30 10:05:28;;;;;;;;;;;4.40;94.60;;;;;;6100273;23;19917;-77
2021/12/30 10:08:13;;;;;;;;;;;4.40;94.50;;;;;;6099802;23;19921;-79
2021/12/30 10:10:42;;;;;;;;;;;4.50;94.50;;;;;;6099805;23;19964;-77
2021/12/30 10:13:16;;;;;;;;;;;4.60;94.30;;;;;;6099515;23;20342;-78
2021/12/30 10:15:44;;;;;;;;;;;4.60;94.30;;;;;;6126178;23;19940;-79
2021/12/30 10:18:12;;;;;;;;;;;4.60;94.20;;;;;;6124624;23;19916;-76
2021/12/30 10:20:40;;;;;;;;;;;4.70;94.20;;;;;;6099555;23;20334;-79
2021/12/30 10:23:11;;;;;;;;;;;4.70;94.10;;;;;;6125349;23;19968;-77
2021/12/30 10:25:40;;;;;;;;;;;4.80;94.10;;;;;;6099994;23;20413;-79
2021/12/30 10:28:25;;;;;;;;;;;4.90;94.10;;;;;;6125111;23;19921;-76
2021/12/30 10:30:54;;;;;;;;;;;4.90;94.00;;;;;;6125089;23;19916;-77
2021/12/30 10:33:22;;;;;;;;;;;4.80;93.70;;;;;;6099405;23;19991;-78
2021/12/30 10:35:50;;;;;;;;;;;4.80;93.80;;;;;;6100537;23;19916;-78
2021/12/30 10:38:16;;;;;;;;;;;4.90;93.80;;;;;;6124181;23;20413;-76
2021/12/30 10:40:46;;;;;;;;;;;4.70;93.70;;;;;;6099847;23;19923;-77
2021/12/30 10:43:24;;;;;;;;;;;4.70;94.00;;;;;;6098832;23;19988;-78
2021/12/30 10:46:06;;;;;;;;;;;4.70;94.00;;;;;;6099055;23;19932;-76
2021/12/30 10:48:33;;;;;;;;;;;4.60;94.00;;;;;;6070358;23;19981;-78
2021/12/30 10:51:15;;;;;;;;;;;4.70;94.30;;;;;;6096359;23;20299;-76
2021/12/30 10:53:42;;;;;;;;;;;4.80;94.30;;;;;;6070468;23;19928;-78
2021/12/30 10:56:19;;;;;;;;;;;5.00;94.40;;;;;;6071500;23;19972;-78
2021/12/30 10:58:46;;;;;;;;;;;5.10;94.30;;;;;;6070751;23;19917;-76
2021/12/30 11:01:17;;;;;;;;;;;5.20;94.00;;;;;;6096000;23;19941;-76
2021/12/30 11:03:57;;;;;;;;;;;5.30;93.90;;;;;;6070205;23;19923;-78
2021/12/30 11:06:25;;;;;;;;;;;5.40;93.60;;;;;;6070090;23;20266;-76
2021/12/30 11:09:09;;;;;;;;;;;5.30;93.40;;;;;;6071478;23;19967;-76
2021/12/30 11:11:39;;;;;;;;;;;5.30;93.50;;;;;;6095231;23;19919;-77
2021/12/30 11:14:07;;;;;;;;;;;5.40;93.40;;;;;;6095833;23;19921;-79
2021/12/30 11:16:51;;;;;;;;;;;5.40;93.50;;;;;;6069653;23;19924;-79
2021/12/30 11:19:20;;;;;;;;;;;5.50;93.30;;;;;;6095621;23;19941;-79
2021/12/30 11:21:49;;;;;;;;;;;5.60;93.30;;;;;;6069767;23;19917;-76
2021/12/30 11:24:16;;;;;;;;;;;5.60;93.20;;;;;;6095702;23;20331;-76
2021/12/30 11:26:43;;;;;;;;;;;5.70;93.00;;;;;;6069347;23;19932;-79
2021/12/30 11:29:10;;;;;;;;;;;5.70;93.10;;;;;;6069690;23;19932;-76
2021/12/30 11:31:36;;;;;;;;;;;5.70;93.00;;;;;;6069699;23;20303;-79
2021/12/30 11:34:04;;;;;;;;;;;5.70;93.10;;;;;;6070453;23;19921;-79
2021/12/30 11:36:33;;;;;;;;;;;5.80;93.20;;;;;;6070004;23;20394;-79
2021/12/30 11:39:10;;;;;;;;;;;5.90;93.10;;;;;;6070738;23;20391;-79
2021/12/30 11:41:38;;;;;;;;;;;6.00;93.00;;;;;;6069594;23;19917;-79
2021/12/30 11:44:05;;;;;;;;;;;6.00;93.00;;;;;;6070506;23;19921;-79
2021/12/30 11:46:45;;;;;;;;;;;6.00;93.20;;;;;;6078576;23;19920;-78
2021/12/30 11:49:15;;;;;;;;;;;5.80;93.50;;;;;;6099560;23;20000;-78
2021/12/30 11:51:46;;;;;;;;;;;5.80;93.70;;;;;;6098668;23;19921;-76
2021/12/30 11:54:32;;;;;;;;;;;6.00;93.80;;;;;;6124933;23;19917;-76
2021/12/30 11:57:17;;;;;;;;;;;6.10;93.60;;;;;;6098772;23;19975;-77
2021/12/30 11:59:44;;;;;;;;;;;6.20;93.50;;;;;;6123512;23;19921;-79
2021/12/30 12:02:26;;;;;;;;;;;6.40;93.50;;;;;;6124535;23;19916;-79
2021/12/30 12:04:53;;;;;;;;;;;6.60;93.30;;;;;;6099049;23;19964;-76
2021/12/30 12:07:22;;;;;;;;;;;6.70;92.90;;;;;;6124205;23;19963;-78
2021/12/30 12:09:49;;;;;;;;;;;6.90;93.00;;;;;;6098250;23;19921;-79
2021/12/30 12:12:36;;;;;;;;;;;7.10;92.50;;;;;;6101899;23;19952;-79
2021/12/30 12:15:03;;;;;;;;;;;7.20;92.20;;;;;;6099501;23;19917;-76
2021/12/30 12:17:32;;;;;;;;;;;7.30;91.60;;;;;;6099052;23;19979;-78
2021/12/30 12:20:10;;;;;;;;;;;7.40;91.90;;;;;;6097216;23;19917;-76
2021/12/30 12:22:37;;;;;;;;;;;7.60;91.50;;;;;;6098127;23;20018;-79
2021/12/30 12:25:04;;;;;;;;;;;7.80;91.00;;;;;;6099013;23;19917;-79
2021/12/30 12:27:33;;;;;;;;;;;7.90;90.70;;;;;;6124513;23;19920;-77
2021/12/30 12:30:00;;;;;;;;;;;8.00;90.40;;;;;;6074774;23;19928;-79
2021/12/30 12:32:30;;;;;;;;;;;8.20;90.00;;;;;;6099187;23;19972;-79
2021/12/30 12:34:58;;;;;;;;;;;8.30;89.40;;;;;;6098916;23;19916;-78
2021/12/30 12:37:39;;;;;;;;;;;8.50;88.80;;;;;;6125149;23;19936;-78
2021/12/30 12:40:10;;;;;;;;;;;8.60;87.50;;;;;;6123105;23;19940;-78
2021/12/30 12:42:43;;;;;;;;;;;8.70;86.80;;;;;;6099727;23;19924;-77
2021/12/30 12:45:16;;;;;;;;;;;8.90;85.60;;;;;;6101015;23;20535;-78
2021/12/30 12:47:43;;;;;;;;;;;9.00;85.30;;;;;;6101022;23;20383;-79
2021/12/30 12:50:10;;;;;;;;;;;9.00;84.30;;;;;;6125682;23;20456;-77
2021/12/30 12:52:41;;;;;;;;;;;9.10;84.70;;;;;;6101102;23;19924;-76
2021/12/30 12:55:11;;;;;;;;;;;9.10;83.90;;;;;;6125596;23;19980;-79
2021/12/30 12:57:41;;;;;;;;;;;9.20;84.70;;;;;;6077258;23;19920;-79
2021/12/30 13:00:10;;;;;;;;;;;9.30;83.90;;;;;;6125919;23;19921;-78
2021/12/30 13:02:37;;;;;;;;;;;9.40;82.90;;;;;;6101017;23;19940;-78
2021/12/30 13:05:12;;;;;;;;;;;9.30;83.60;;;;;;6100205;23;19941;-77
2021/12/30 13:07:39;;;;;;;;;;;9.40;83.90;;;;;;6125940;23;19917;-78
2021/12/30 13:10:06;;;;;;;;;;;9.30;82.90;;;;;;6125363;23;19924;-76
2021/12/30 13:12:36;;;;;;;;;;;9.30;83.50;;;;;;6100904;23;19941;-79
2021/12/30 13:15:13;;;;;;;;;;;9.40;83.90;;;;;;6125635;23;19963;-77
2021/12/30 13:17:43;;;;;;;;;;;9.50;83.20;;;;;;6101013;23;20334;-79
2021/12/30 13:20:11;;;;;;;;;;;9.60;83.10;;;;;;6099871;23;20357;-78
2021/12/30 13:22:38;;;;;;;;;;;9.80;82.70;;;;;;6100617;23;19971;-79
2021/12/30 13:25:06;;;;;;;;;;;9.90;82.10;;;;;;6099338;23;19928;-77
2021/12/30 13:27:37;;;;;;;;;;;10.00;81.40;;;;;;6076818;23;19968;-79
2021/12/30 13:30:24;;;;;;;;;;;10.10;81.50;;;;;;6104342;23;20114;-78
2021/12/30 13:32:53;;;;;;;;;;;10.10;80.60;;;;;;6100767;23;20239;-79
2021/12/30 13:35:27;;;;;;;;;;;10.20;80.50;;;;;;6100112;23;20318;-78
2021/12/30 13:38:03;;;;;;;;;;;10.20;80.30;;;;;;6126267;23;19924;-77
2021/12/30 13:40:35;;;;;;;;;;;10.20;80.20;;;;;;6100531;23;20568;-79
2021/12/30 13:43:04;;;;;;;;;;;10.20;79.70;;;;;;6099883;23;19921;-79
2021/12/30 13:45:33;;;;;;;;;;;10.20;80.10;;;;;;6100133;23;19928;-79
2021/12/30 13:48:11;;;;;;;;;;;10.30;79.80;;;;;;6100263;23;19924;-77
2021/12/30 13:50:39;;;;;;;;;;;10.30;79.50;;;;;;6099245;23;20412;-77
2021/12/30 13:53:06;;;;;;;;;;;10.40;79.40;;;;;;6125934;23;19980;-79
2021/12/30 13:55:39;;;;;;;;;;;10.50;79.20;;;;;;6100190;23;19925;-78
2021/12/30 13:58:13;;;;;;;;;;;10.50;78.20;;;;;;6125229;23;20365;-80
2021/12/30 14:00:42;;;;;;;;;;;10.50;77.70;;;;;;6098565;23;19921;-77
2021/12/30 14:03:13;;;;;;;;;;;10.40;78.00;;;;;;6089194;23;20219;-79
2021/12/30 14:05:44;;;;;;;;;;;10.40;78.30;;;;;;6089917;23;19917;-78
2021/12/30 14:08:13;;;;;;;;;;;10.30;78.20;;;;;;6098578;23;19959;-76
2021/12/30 14:10:45;;;;;;;;;;;10.30;78.60;;;;;;6098500;23;20341;-76
2021/12/30 14:13:12;;;;;;;;;;;10.20;79.10;;;;;;6098513;23;19924;-77
2021/12/30 14:15:38;;;;;;;;;;;9.90;79.40;;;;;;6098213;23;19924;-78
2021/12/30 14:18:08;;;;;;;;;;;9.70;79.90;;;;;;6098956;23;19925;-79
2021/12/30 14:20:35;;;;;;;;;;;9.50;80.60;;;;;;6098288;23;20278;-78
2021/12/30 14:23:02;;;;;;;;;;;9.30;81.60;;;;;;6099122;23;19920;-79
2021/12/30 14:25:32;;;;;;;;;;;9.30;81.70;;;;;;6100463;23;19931;-79
2021/12/30 14:28:03;;;;;;;;;;;9.10;81.90;;;;;;6098430;23;19921;-79
2021/12/30 14:30:31;;;;;;;;;;;8.90;82.00;;;;;;6098746;23;20378;-78
2021/12/30 14:33:15;;;;;;;;;;;8.80;82.40;;;;;;6099960;23;19917;-79
2021/12/30 14:35:42;;;;;;;;;;;8.80;82.90;;;;;;6099885;23;19924;-78
2021/12/30 14:38:09;;;;;;;;;;;8.70;83.30;;;;;;6102076;23;19939;-79
2021/12/30 14:40:36;;;;;;;;;;;8.70;83.60;;;;;;6099325;23;19924;-79